M I D A S
Marine Information and Data Acquisition System
Tripno 1503 of the Zeeleeuw from 2008-06-13 04:43:49 to 2008-06-13 13:35:45
Back to CruiseResearch ActivitiesStationsMapUnderway DataData graphs

EquipmentUnitsComment
TimeDGPSUTC
LatitudeDGPSDM.mWGS84
LongitudeDGPSDM.mWGS84
TemperatureSBE03/SBE38deg celciusITS90
ConductivitySBE21S/mITS90
SalinitySBE21 Practical Salinity Units
ChlorophylAChelsea fluorimeterg/lCalibrated in Aceton
Missing or incorrect values are displayed as -999
Sea surface data collected by the RV Zeeleeuw from 2008-06-13 04:12:45 to 2008-06-13 13:36:31
Time Latitude Longitude Temperature Conductivity Salinity ChlorophylA
2008-06-13 04:13:50 51°13.64 2°55.986 20.1714 0.275438 1.720566 -1.697049
2008-06-13 04:14:49 51°13.666 2°55.88 20.2173 0.274718 1.715944 -1.697049
2008-06-13 04:15:49 51°13.696 2°55.77 20.2558 0.271423 1.69437 -1.697049
2008-06-13 04:16:49 51°13.698 2°55.753 20.1919 0.275747 1.723187 -1.697049
2008-06-13 04:17:49 51°13.7 2°55.742 20.2489 0.271526 1.695386 -1.697049
2008-06-13 04:18:49 51°13.685 2°55.737 20.2169 0.270291 1.687235 -1.697049
2008-06-13 04:19:49 51°13.731 2°55.714 20.2374 0.269056 1.679387 -1.697049
2008-06-13 04:20:49 51°13.829 2°55.634 20.1652 0.270291 1.687536 -1.697049
2008-06-13 04:21:49 51°13.949 2°55.541 20.2241 0.269468 1.682337 -1.697049
2008-06-13 04:22:49 51°14.094 2°55.433 20.1957 0.270085 1.686647 -1.697049
2008-06-13 04:23:49 51°14.236 2°55.292 20.2237 0.266173 1.661007 -1.697049
2008-06-13 04:24:50 51°14.366 2°55.068 20.1879 0.263394 1.642818 -1.697049
2008-06-13 04:25:49 51°14.505 2°54.856 20.1982 0.262776 1.638846 -1.697049
2008-06-13 04:26:49 51°14.627 2°54.613 20.1526 0.270806 1.691974 -1.697049
2008-06-13 04:27:49 51°14.721 2°54.342 20.1863 0.297778 1.87084 -1.697049
2008-06-13 04:28:50 51°14.745 2°54.017 20.1346 0.281306 1.761161 -1.697049
2008-06-13 04:29:49 51°14.767 2°53.701 20.1481 0.279247 1.747221 -1.697049
2008-06-13 04:30:50 51°14.798 2°53.378 20.1642 0.287071 1.799068 -1.697049
2008-06-13 04:31:49 51°14.819 2°53.062 20.1529 0.279247 1.747568 -1.697049
2008-06-13 04:32:49 51°14.84 2°52.742 20.1706 0.286351 1.794541 -1.697049
2008-06-13 04:33:50 51°14.86 2°52.415 20.1728 0.285424 1.78872 -1.697049
2008-06-13 04:34:50 51°14.875 2°52.093 20.1685 0.293866 1.844695 -1.697049
2008-06-13 04:35:50 51°14.881 2°51.767 20.1762 0.279659 1.750641 -1.697049
2008-06-13 04:36:50 51°14.882 2°51.438 20.1643 0.293557 1.843047 -1.697049
2008-06-13 04:37:50 51°14.886 2°51.106 20.1806 0.284395 1.782606 -1.697049
2008-06-13 04:38:50 51°14.892 2°50.776 20.1853 0.258968 1.614629 -1.697049
2008-06-13 04:39:50 51°14.895 2°50.445 20.1953 0.25732 1.603816 -1.697049
2008-06-13 04:40:50 51°14.899 2°50.114 20.1805 0.267409 1.670348 -1.697049
2008-06-13 04:41:50 51°14.904 2°49.781 20.2014 0.271938 1.700466 -1.697049
2008-06-13 04:42:50 51°14.911 2°49.453 20.3563 0.292733 1.838381 -1.697049
2008-06-13 04:43:50 51°14.915 2°49.127 20.2891 0.263703 1.64616 -1.697049
2008-06-13 04:44:50 51°14.921 2°48.799 20.3382 0.258556 1.612366 -1.697049
2008-06-13 04:45:50 51°14.925 2°48.472 20.3326 0.262879 1.641219 -1.697049
2008-06-13 04:46:50 51°14.932 2°48.148 20.3658 0.277909 1.740617 -1.697049
2008-06-13 04:47:50 51°14.94 2°47.823 20.3527 0.262262 1.637471 -1.697049
2008-06-13 04:48:50 51°14.947 2°47.499 20.3628 0.2601 1.623377 -1.697049
2008-06-13 04:49:50 51°14.954 2°47.176 20.3689 0.265453 1.658694 -1.697049
2008-06-13 04:50:50 51°14.96 2°46.855 20.3756 0.260718 1.627482 -1.697049
2008-06-13 04:51:50 51°14.966 2°46.533 20.4007 0.24785 1.542843 -1.697049
2008-06-13 04:52:50 51°14.976 2°46.214 20.4514 0.262982 1.642649 -1.697049
2008-06-13 04:53:50 51°14.981 2°45.892 20.0169 0.264629 1.653816 -1.697049
2008-06-13 04:54:50 51°14.989 2°45.568 20.0532 0.26185 1.635763 -1.697049
2008-06-13 04:55:50 51°14.997 2°45.244 20.1109 0.248468 1.547733 -1.697049
2008-06-13 04:56:50 51°15.007 2°44.916 20.167 0.272865 1.708765 -1.697049
2008-06-13 04:57:50 51°15.021 2°44.591 20.201 0.277703 1.740881 -1.697049
2008-06-13 04:58:50 51°15.041 2°44.269 20.2244 0.267718 1.67505 -1.697049
2008-06-13 04:59:50 51°15.06 2°43.949 20.2597 0.253615 1.582074 -1.697049
2008-06-13 05:00:50 51°15.099 2°43.638 20.2249 0.258247 1.612607 -1.697049
2008-06-13 05:01:50 51°15.146 2°43.33 20.266 0.263806 1.649594 -1.697049
2008-06-13 05:02:50 51°15.186 2°43.021 20.2682 0.252071 1.57225 -1.731873
2008-06-13 05:03:50 51°15.231 2°42.717 20.2895 0.277806 1.742223 -1.697049
2008-06-13 05:04:50 51°15.279 2°42.414 20.3085 0.252379 1.574346 -1.697049
2008-06-13 05:05:50 51°15.332 2°42.117 20.322 0.261644 1.635642 -1.697049
2008-06-13 05:06:50 51°15.404 2°41.826 20.3297 0.252173 1.573429 -1.697049
2008-06-13 05:07:50 51°15.499 2°41.559 20.3242 0.265968 1.664642 -1.697049
2008-06-13 05:08:50 51°15.59 2°41.29 20.3221 0.308999 1.95075 -1.697049
2008-06-13 05:09:50 51°15.675 2°41.017 20.3279 0.326192 2.066114 -1.697049
2008-06-13 05:10:50 51°15.76 2°40.741 20.3431 0.269159 1.685823 -1.697049
2008-06-13 05:11:50 51°15.847 2°40.459 20.3618 0.253718 1.584014 -1.697049
2008-06-13 05:12:50 51°15.933 2°40.175 20.3638 0.261232 1.633704 -1.697049
2008-06-13 05:13:50 51°16.019 2°39.887 20.3737 0.256909 1.605477 -1.697049
2008-06-13 05:14:50 51°16.107 2°39.601 20.3859 0.25835 1.615119 -1.697049
2008-06-13 05:15:50 51°16.193 2°39.317 20.3939 0.250938 1.566322 -1.697049
2008-06-13 05:16:50 51°16.28 2°39.028 20.3977 0.243835 1.519862 -1.697049
2008-06-13 05:17:50 51°16.369 2°38.75 20.389 0.279453 1.755315 -1.697049
2008-06-13 05:18:50 51°16.46 2°38.483 20.353 0.290777 1.830779 -1.697049
2008-06-13 05:19:50 51°16.553 2°38.22 20.3927 0.242394 1.510594 -1.697049
2008-06-13 05:20:50 51°16.649 2°37.97 20.3819 0.250424 1.563834 -1.697049
2008-06-13 05:21:50 51°16.734 2°37.734 20.4002 0.269262 1.688288 -1.697049
2008-06-13 05:22:50 51°16.812 2°37.555 20.4116 0.252585 1.57828 -1.697049
2008-06-13 05:23:50 51°16.879 2°37.547 20.4217 0.256497 1.604487 -1.697049
2008-06-13 05:24:50 51°16.948 2°37.528 20.4288 0.257218 1.609376 -1.697049
2008-06-13 05:25:50 51°17 2°37.536 20.4427 0.256291 1.603447 -1.697049
2008-06-13 05:26:50 51°17.036 2°37.557 20.4091 0.22366 1.388965 -1.697049
2008-06-13 05:27:50 51°17.061 2°37.575 20.4359 0.262262 1.643126 -1.697049
2008-06-13 05:28:50 51°17.083 2°37.593 20.4485 0.268747 1.686291 -1.697049
2008-06-13 05:29:49 51°17.101 2°37.618 20.4571 0.243938 1.52236 -1.697049
2008-06-13 05:30:49 51°17.138 2°37.652 20.45 0.261335 1.637681 -1.697049
2008-06-13 05:31:49 51°17.173 2°37.673 20.468 0.257629 1.613096 -1.697049
2008-06-13 05:32:49 51°17.176 2°37.7 20.476 0.239821 1.495764 -1.697049
2008-06-13 05:33:49 51°17.17 2°37.716 20.4821 0.246512 1.540024 -1.697049
2008-06-13 05:34:49 51°17.159 2°37.727 20.4883 0.245688 1.534717 -1.697049
2008-06-13 05:35:49 51°17.147 2°37.734 20.495 0.244762 1.528731 -1.697049
2008-06-13 05:36:49 51°17.132 2°37.739 20.5016 0.242188 1.511863 -1.697049
2008-06-13 05:37:50 51°17.117 2°37.744 20.5086 0.245071 1.531165 -1.697049
2008-06-13 05:38:50 51°17.102 2°37.749 20.5163 0.243835 1.523081 -1.697049
2008-06-13 05:39:50 51°17.089 2°37.752 20.5202 0.241056 1.504976 -1.697049
2008-06-13 05:40:50 51°17.075 2°37.756 20.5246 0.223351 1.388855 -1.697049
2008-06-13 05:41:50 51°17.061 2°37.76 20.5286 0.222527 1.383541 -1.697049
2008-06-13 05:42:49 51°17.048 2°37.762 20.5417 0.248056 1.55179 -1.697049
2008-06-13 05:43:49 51°17.034 2°37.764 20.5442 0.254541 1.594816 -1.697049
2008-06-13 05:44:49 51°17.02 2°37.765 20.5502 0.238997 1.492521 -1.697049
2008-06-13 05:45:49 51°17.007 2°37.768 20.5563 0.255674 1.602919 -1.697049
2008-06-13 05:46:50 51°16.993 2°37.771 20.5614 0.251041 1.572425 -1.697049
2008-06-13 05:47:50 51°16.981 2°37.779 20.5678 0.246306 1.541376 -1.697049
2008-06-13 05:48:49 51°16.969 2°37.785 20.5704 0.245791 1.538131 -1.697049
2008-06-13 05:49:49 51°16.959 2°37.792 20.5739 0.253718 1.590673 -1.697049
2008-06-13 05:50:49 51°16.949 2°37.799 20.5807 0.251968 1.57928 -1.697049
2008-06-13 05:51:49 51°16.936 2°37.805 20.5866 0.254953 1.599301 -1.697049
2008-06-13 05:52:49 51°16.923 2°37.808 20.5904 0.258247 1.621166 -1.697049
2008-06-13 05:53:49 51°16.912 2°37.817 20.5905 0.236012 1.474304 -1.697049
2008-06-13 05:54:50 51°16.934 2°37.843 20.5951 0.247747 1.551924 -1.697049
2008-06-13 05:55:49 51°16.957 2°37.83 20.5984 0.235086 1.468376 -1.697049
2008-06-13 05:56:50 51°16.959 2°37.818 20.6053 0.264012 1.660052 -1.697049
2008-06-13 05:57:50 51°16.949 2°37.817 20.6151 0.260512 1.63704 -1.697049
2008-06-13 05:58:50 51°16.939 2°37.824 20.6216 0.26535 1.669212 -1.697049
2008-06-13 05:59:50 51°16.929 2°37.833 20.6236 0.254953 1.600327 -1.697049
2008-06-13 06:00:50 51°16.919 2°37.841 20.6197 0.266277 1.675741 -1.697049
2008-06-13 06:01:50 51°16.906 2°37.849 20.6371 0.245277 1.536639 -1.697049
2008-06-13 06:02:50 51°16.894 2°37.858 20.6396 0.250424 1.570825 -1.697049
2008-06-13 06:03:50 51°16.872 2°37.834 20.6435 0.256291 1.609878 -1.697049
2008-06-13 06:04:50 51°16.867 2°37.77 20.6499 0.264527 1.664607 -1.697049
2008-06-13 06:05:50 51°16.883 2°37.689 20.6372 0.269056 1.694742 -1.697049
2008-06-13 06:06:50 51°16.895 2°37.639 20.6499 0.262056 1.648152 -1.697049
2008-06-13 06:07:50 51°16.898 2°37.62 20.6543 0.259174 1.629138 -1.697049
2008-06-13 06:08:50 51°16.894 2°37.617 20.6552 0.246512 1.545367 -1.731873
2008-06-13 06:09:50 51°16.886 2°37.624 20.6572 0.244556 1.532612 -1.731873
2008-06-13 06:10:50 51°16.877 2°37.637 20.6559 0.252174 1.583148 -1.697049
2008-06-13 06:11:50 51°16.87 2°37.652 20.6665 0.251041 1.575769 -1.697049
2008-06-13 06:12:50 51°16.863 2°37.666 20.6683 0.243012 1.522768 -1.697049
2008-06-13 06:13:50 51°16.855 2°37.676 20.6839 0.248365 1.558319 -1.697049
2008-06-13 06:14:50 51°16.845 2°37.683 20.6888 0.268541 1.692437 -1.697049
2008-06-13 06:15:50 51°16.835 2°37.689 20.685 0.25588 1.608405 -1.697049
2008-06-13 06:16:50 51°16.827 2°37.694 20.6898 0.241983 1.516387 -1.697049
2008-06-13 06:17:50 51°16.819 2°37.7 20.6879 0.256085 1.609901 -1.697049
2008-06-13 06:18:50 51°16.811 2°37.708 20.6939 0.24888 1.562262 -1.697049
2008-06-13 06:19:50 51°16.802 2°37.719 20.6969 0.263188 1.657374 -1.697049
2008-06-13 06:20:50 51°16.792 2°37.728 20.7009 0.264115 1.663539 -1.697049
2008-06-13 06:21:50 51°16.783 2°37.728 20.6988 0.263394 1.658844 -1.697049
2008-06-13 06:22:50 51°16.786 2°37.682 20.7103 0.244968 1.536538 -1.697049
2008-06-13 06:23:50 51°16.818 2°37.658 20.7141 0.252997 1.589885 -1.697049
2008-06-13 06:24:50 51°16.863 2°37.682 20.7129 0.2566 1.613903 -1.697049
2008-06-13 06:25:50 51°16.91 2°37.698 20.7164 0.234468 1.467364 -1.697049
2008-06-13 06:26:50 51°16.957 2°37.688 20.7247 0.247953 1.556717 -1.697049
2008-06-13 06:27:50 51°16.992 2°37.69 20.7252 0.259277 1.631885 -1.697049
2008-06-13 06:28:50 51°17.006 2°37.708 20.7259 0.255468 1.606608 -1.697049
2008-06-13 06:29:50 51°17.01 2°37.734 20.726 0.250012 1.570398 -1.697049
2008-06-13 06:30:50 51°17.006 2°37.759 20.7226 0.239512 1.500959 -1.731873
2008-06-13 06:31:50 51°17.002 2°37.78 20.7323 0.244762 1.535792 -1.697049
2008-06-13 06:32:50 51°16.998 2°37.799 20.7303 0.241468 1.514047 -1.697049
2008-06-13 06:33:50 51°16.993 2°37.814 20.7394 0.257527 1.620611 -1.697049
2008-06-13 06:34:49 51°16.988 2°37.833 20.74 0.239203 1.499278 -1.697049
2008-06-13 06:35:50 51°16.995 2°37.897 20.7406 0.251968 1.584009 -1.697049
2008-06-13 06:36:50 51°17.017 2°37.993 20.7446 0.253409 1.593834 -1.697049
2008-06-13 06:37:50 51°17.045 2°38.085 20.7562 0.245689 1.542735 -1.697049
2008-06-13 06:38:50 51°17.061 2°38.142 20.7763 0.229939 1.438755 -1.697049
2008-06-13 06:39:50 51°17.069 2°38.182 20.7639 0.242086 1.519264 -1.697049
2008-06-13 06:40:49 51°17.072 2°38.214 20.7657 0.244144 1.533088 -1.697049
2008-06-13 06:41:50 51°17.071 2°38.244 20.7654 0.246821 1.551083 -1.697049
2008-06-13 06:42:50 51°17.067 2°38.269 20.7665 0.248777 1.564093 -1.697049
2008-06-13 06:43:49 51°17.063 2°38.294 20.7734 0.241571 1.516588 -1.697049
2008-06-13 06:44:50 51°17.058 2°38.319 20.7795 0.231483 1.450083 -1.697049
2008-06-13 06:45:50 51°17.057 2°38.361 20.7703 0.232718 1.458422 -1.697049
2008-06-13 06:46:50 51°17.042 2°38.436 20.7801 0.247953 1.559601 -1.697049
2008-06-13 06:47:50 51°16.998 2°38.46 20.7731 0.246409 1.549568 -1.697049
2008-06-13 06:48:50 51°16.979 2°38.393 20.7899 0.259997 1.640106 -1.697049
2008-06-13 06:49:50 51°17.021 2°38.221 20.7894 0.249291 1.568899 -1.697049
2008-06-13 06:50:50 51°17.081 2°37.942 20.7957 0.244453 1.536495 -1.697049
2008-06-13 06:51:49 51°17.148 2°37.659 20.8036 0.257733 1.62515 -1.697049
2008-06-13 06:52:47 51°17.212 2°37.385 20.803 0.238174 1.494845 -1.697049
2008-06-13 06:53:46 51°17.263 2°37.096 20.8054 0.2601 1.64066 -1.697049
2008-06-13 06:54:46 51°17.304 2°36.83 20.811 0.250836 1.579257 -1.697049
2008-06-13 06:55:45 51°17.371 2°36.696 20.8228 0.252688 1.591674 -1.697049
2008-06-13 06:56:47 51°17.428 2°36.573 20.832 0.248674 1.565174 -1.697049
2008-06-13 06:57:46 51°17.439 2°36.493 20.8367 0.262468 1.657043 -1.697049
2008-06-13 06:58:46 51°17.44 2°36.467 20.8323 0.23313 1.462291 -1.697049
2008-06-13 06:59:46 51°17.434 2°36.462 20.8371 0.253306 1.596201 -1.697049
2008-06-13 07:00:46 51°17.429 2°36.45 20.8376 0.264733 1.67239 -1.697049
2008-06-13 07:01:46 51°17.429 2°36.434 20.8313 0.226645 1.419598 -1.697049
2008-06-13 07:02:46 51°17.429 2°36.435 20.8348 0.257321 1.623193 -1.697049
2008-06-13 07:03:46 51°17.426 2°36.451 20.8277 0.23138 1.451038 -1.697049
2008-06-13 07:04:46 51°17.419 2°36.444 20.8352 0.234983 1.47497 -1.697049
2008-06-13 07:05:46 51°17.397 2°36.421 20.8351 0.235395 1.477756 -1.697049
2008-06-13 07:06:46 51°17.391 2°36.396 20.8513 0.263189 1.662722 -1.697049
2008-06-13 07:07:46 51°17.396 2°36.366 20.8455 0.250115 1.575515 -1.697049
2008-06-13 07:08:46 51°17.399 2°36.37 20.8472 0.249291 1.570196 -1.697049
2008-06-13 07:09:46 51°17.401 2°36.378 20.8482 0.253203 1.596385 -1.697049
2008-06-13 07:10:46 51°17.401 2°36.387 20.8471 0.25763 1.626005 -1.697049
2008-06-13 07:11:46 51°17.399 2°36.404 20.8416 0.232615 1.459886 -1.697049
2008-06-13 07:12:46 51°17.395 2°36.42 20.8476 0.237762 1.494074 -1.697049
2008-06-13 07:13:46 51°17.398 2°36.401 20.8459 0.244453 1.538634 -1.697049
2008-06-13 07:14:46 51°17.409 2°36.354 20.8544 0.264939 1.675251 -1.697049
2008-06-13 07:15:46 51°17.41 2°36.336 20.8619 0.241365 1.51828 -1.697049
2008-06-13 07:16:46 51°17.41 2°36.345 20.852 0.242909 1.528563 -1.697049
2008-06-13 07:17:46 51°17.408 2°36.363 20.8572 0.233233 1.464477 -1.697049
2008-06-13 07:18:46 51°17.405 2°36.388 20.8593 0.246203 1.550701 -1.697049
2008-06-13 07:19:46 51°17.402 2°36.416 20.8629 0.23313 1.464002 -1.697049
2008-06-13 07:20:46 51°17.397 2°36.431 20.868 0.245277 1.544698 -1.697049
2008-06-13 07:21:47 51°17.398 2°36.387 20.8708 0.243836 1.535212 -1.697049
2008-06-13 07:22:46 51°17.407 2°36.375 20.8703 0.249497 1.572834 -1.697049
2008-06-13 07:23:46 51°17.41 2°36.381 20.8691 0.255777 1.614926 -1.731873
2008-06-13 07:24:46 51°17.41 2°36.396 20.8662 0.249189 1.571096 -1.697049
2008-06-13 07:25:46 51°17.409 2°36.415 20.8725 0.253821 1.602081 -1.731873
2008-06-13 07:26:46 51°17.406 2°36.442 20.8698 0.225204 1.41213 -1.697049
2008-06-13 07:27:46 51°17.4 2°36.464 20.8717 0.250321 1.57889 -1.697049
2008-06-13 07:28:46 51°17.361 2°36.444 20.8708 0.242909 1.529705 -1.697049
2008-06-13 07:29:46 51°17.264 2°36.37 20.8825 0.233336 1.466253 -1.697049
2008-06-13 07:30:46 51°17.125 2°36.222 20.8805 0.225925 1.417209 -1.697049
2008-06-13 07:31:46 51°16.971 2°36.056 20.8831 0.248159 1.564845 -1.697049
2008-06-13 07:32:46 51°16.822 2°35.876 20.9127 0.232615 1.461507 -1.697049
2008-06-13 07:33:46 51°16.676 2°35.692 20.9166 0.24785 1.562758 -1.697049
2008-06-13 07:34:46 51°16.53 2°35.5 20.9131 0.242806 1.52936 -1.697049
2008-06-13 07:35:46 51°16.386 2°35.313 20.9314 0.250939 1.583451 -1.697049
2008-06-13 07:36:46 51°16.241 2°35.129 20.9409 0.244865 1.543113 -1.697049
2008-06-13 07:37:46 51°16.101 2°34.941 20.9569 0.248674 1.568367 -1.697049
2008-06-13 07:38:46 51°15.987 2°34.773 20.949 0.249394 1.573325 -1.697049
2008-06-13 07:39:46 51°16.01 2°34.666 20.9465 0.235498 1.481214 -1.731873
2008-06-13 07:40:46 51°16.097 2°34.708 20.9398 0.248674 1.569001 -1.697049
2008-06-13 07:41:47 51°16.156 2°34.879 21.0038 0.229733 1.443434 -1.697049
2008-06-13 07:42:46 51°16.291 2°34.893 20.9622 0.22613 1.419746 -1.697049
2008-06-13 07:43:46 51°16.475 2°34.857 20.9554 0.239924 1.511184 -1.697049
2008-06-13 07:44:46 51°16.66 2°34.764 20.9566 0.234262 1.473257 -1.697049
2008-06-13 07:45:46 51°16.845 2°34.673 20.9543 0.249292 1.573434 -1.697049
2008-06-13 07:46:46 51°17.028 2°34.587 20.95 0.251453 1.587908 -1.731873
2008-06-13 07:47:46 51°17.212 2°34.506 20.9596 0.255056 1.611977 -1.697049
2008-06-13 07:48:46 51°17.397 2°34.431 20.9631 0.234777 1.477239 -1.697049
2008-06-13 07:49:46 51°17.589 2°34.338 20.9635 0.228807 1.43779 -1.697049
2008-06-13 07:50:46 51°17.783 2°34.235 20.9608 0.238998 1.505149 -1.697049
2008-06-13 07:51:46 51°17.971 2°34.116 20.9618 0.2496 1.575938 -1.697049
2008-06-13 07:52:46 51°18.15 2°33.989 20.9752 0.310338 1.9838 -1.697049
2008-06-13 07:53:46 51°18.333 2°33.86 20.972 0.287072 1.826699 -1.697049
2008-06-13 07:54:46 51°18.514 2°33.732 20.9779 0.331134 2.125524 -1.697049
2008-06-13 07:55:46 51°18.693 2°33.605 20.981 0.283572 1.803622 -1.697049
2008-06-13 07:56:46 51°18.874 2°33.475 20.9766 0.290778 1.852257 -1.697049
2008-06-13 07:57:46 51°19.056 2°33.34 20.9821 0.299837 1.913616 -1.697049
2008-06-13 07:58:46 51°19.24 2°33.207 20.9945 0.258453 1.635357 -1.697049
2008-06-13 07:59:46 51°19.421 2°33.075 20.9929 0.265659 1.683534 -1.731873
2008-06-13 08:00:46 51°19.604 2°32.935 21.0207 0.276262 1.754817 -1.697049
2008-06-13 08:01:46 51°19.724 2°32.694 21.0081 0.274924 1.745619 -1.697049
2008-06-13 08:02:46 51°19.816 2°32.42 21.0135 0.275542 1.749836 -1.697049
2008-06-13 08:03:46 51°19.912 2°32.149 21.0102 0.264939 1.678743 -1.697049
2008-06-13 08:04:46 51°20.017 2°31.887 21.0139 0.304161 1.942684 -1.697049
2008-06-13 08:05:46 51°20.127 2°31.635 21.0129 0.272556 1.73015 -1.697049
2008-06-13 08:06:46 51°20.233 2°31.381 21.0207 0.276468 1.756449 -1.697049
2008-06-13 08:07:46 51°20.348 2°31.145 21.0232 0.290366 1.849857 -1.697049
2008-06-13 08:08:46 51°20.467 2°30.915 21.0253 0.272968 1.733264 -1.697049
2008-06-13 08:09:46 51°20.615 2°30.736 21.0387 0.26113 1.653755 -1.697049
2008-06-13 08:10:46 51°20.774 2°30.574 21.0454 0.275542 1.750475 -1.697049
2008-06-13 08:11:46 51°20.944 2°30.413 21.0412 0.279866 1.779567 -1.697049
2008-06-13 08:12:46 51°21.136 2°30.307 21.0356 0.288307 1.836428 -1.697049
2008-06-13 08:13:47 51°21.338 2°30.251 21.0654 0.368096 2.37985 -1.697049
2008-06-13 08:14:46 51°21.534 2°30.197 21.0546 0.323104 2.072449 -1.697049
2008-06-13 08:15:46 51°21.734 2°30.129 21.0523 0.305705 1.954356 -1.697049
2008-06-13 08:16:46 51°21.934 2°30.06 21.0523 0.342768 2.206706 -1.697049
2008-06-13 08:17:46 51°22.134 2°30.004 21.0539 0.326501 2.096016 -1.697049
2008-06-13 08:18:46 51°22.332 2°29.96 21.0569 0.346886 2.235107 -1.697049
2008-06-13 08:19:46 51°22.533 2°29.917 21.0667 0.305705 1.954634 -1.697049
2008-06-13 08:20:46 51°22.732 2°29.872 21.0714 0.291396 1.858152 -1.697049
2008-06-13 08:21:46 51°22.936 2°29.83 21.0637 0.261336 1.656139 -1.697049
2008-06-13 08:22:46 51°23.143 2°29.795 21.0677 0.370567 2.397739 -1.731873
2008-06-13 08:23:47 51°23.344 2°29.748 21.0841 0.380039 2.463271 -1.697049
2008-06-13 08:24:46 51°23.499 2°29.72 21.0824 0.366345 2.368946 -1.697049
2008-06-13 08:25:46 51°23.578 2°29.712 21.09 0.335973 2.161401 -1.731873
2008-06-13 08:26:46 51°23.629 2°29.736 21.0889 0.289234 1.844467 -1.697049
2008-06-13 08:27:46 51°23.679 2°29.719 21.0902 0.358521 2.315892 -1.697049
2008-06-13 08:28:46 51°23.704 2°29.714 21.089 0.319707 2.051032 -1.697049
2008-06-13 08:29:46 51°23.714 2°29.735 21.0885 0.29191 1.862759 -1.697049
2008-06-13 08:30:46 51°23.721 2°29.758 21.0936 0.307455 1.968121 -1.697049
2008-06-13 08:31:46 51°23.727 2°29.782 21.097 0.32228 2.068909 -1.697049
2008-06-13 08:32:46 51°23.73 2°29.802 21.0984 0.318059 2.040211 -1.697049
2008-06-13 08:33:46 51°23.733 2°29.816 21.0964 0.286042 1.823536 -1.697049
2008-06-13 08:34:46 51°23.734 2°29.829 21.1016 0.298911 1.910572 -1.697049
2008-06-13 08:35:46 51°23.738 2°29.838 21.104 0.288822 1.842512 -1.697049
2008-06-13 08:36:46 51°23.743 2°29.846 21.1077 0.289543 1.847488 -1.697049
2008-06-13 08:37:46 51°23.749 2°29.838 21.0902 0.265968 1.688851 -1.697049
2008-06-13 08:38:46 51°23.738 2°29.804 21.1039 0.279969 1.783006 -1.697049
2008-06-13 08:39:46 51°23.732 2°29.781 21.1134 0.290366 1.853312 -1.697049
2008-06-13 08:40:46 51°23.732 2°29.778 21.1059 0.275851 1.755537 -1.697049
2008-06-13 08:41:46 51°23.733 2°29.786 21.1084 0.274821 1.748682 -1.697049
2008-06-13 08:42:46 51°23.735 2°29.799 21.1112 0.293043 1.871508 -1.697049
2008-06-13 08:43:46 51°23.74 2°29.814 21.1111 0.273689 1.741171 -1.697049
2008-06-13 08:44:46 51°23.744 2°29.834 21.1097 0.270601 1.720374 -1.697049
2008-06-13 08:45:46 51°23.749 2°29.854 21.1095 0.279454 1.780045 -1.731873
2008-06-13 08:46:46 51°23.753 2°29.87 21.116 0.274615 1.747403 -1.697049
2008-06-13 08:47:46 51°23.744 2°29.824 21.1021 0.258145 1.637038 -1.731873
2008-06-13 08:48:46 51°23.724 2°29.796 21.1147 0.280174 1.785226 -1.697049
2008-06-13 08:49:46 51°23.725 2°29.777 21.1094 0.281925 1.797021 -1.697049
2008-06-13 08:50:46 51°23.73 2°29.78 21.1118 0.261748 1.661286 -1.697049
2008-06-13 08:51:46 51°23.735 2°29.79 21.1131 0.269365 1.712491 -1.697049
2008-06-13 08:52:46 51°23.742 2°29.807 21.1076 0.266483 1.693267 -1.697049
2008-06-13 08:53:46 51°23.747 2°29.827 21.1138 0.283572 1.808348 -1.697049
2008-06-13 08:54:46 51°23.754 2°29.848 21.1131 0.255674 1.620921 -1.697049
2008-06-13 08:55:46 51°23.76 2°29.87 21.1194 0.277395 1.76679 -1.731873
2008-06-13 08:56:46 51°23.77 2°29.852 21.1145 0.25238 1.598873 -1.697049
2008-06-13 08:57:46 51°23.83 2°29.745 21.1143 0.232101 1.463565 -1.697049
2008-06-13 08:58:46 51°23.942 2°29.537 21.1107 0.24713 1.563681 -1.697049
2008-06-13 08:59:46 51°24.079 2°29.324 21.1064 0.246512 1.559208 -1.697049
2008-06-13 09:00:46 51°24.247 2°29.151 21.1117 0.286969 1.8309 -1.731873
2008-06-13 09:01:47 51°24.415 2°28.984 21.1279 0.366243 2.370745 -1.697049
2008-06-13 09:02:46 51°24.52 2°28.894 21.1254 0.301279 1.927888 -1.697049
2008-06-13 09:03:46 51°24.574 2°28.809 21.1212 0.276057 1.757886 -1.731873
2008-06-13 09:04:46 51°24.623 2°28.727 21.1244 0.309412 1.983518 -1.697049
2008-06-13 09:05:46 51°24.688 2°28.67 21.1224 0.269571 1.714501 -1.697049
2008-06-13 09:06:46 51°24.732 2°28.648 21.117 0.310544 1.991612 -1.697049
2008-06-13 09:07:46 51°24.764 2°28.644 21.1239 0.315177 2.022765 -1.697049
2008-06-13 09:08:46 51°24.79 2°28.648 21.1225 0.289543 1.849253 -1.697049
2008-06-13 09:09:46 51°24.813 2°28.656 21.1191 0.271836 1.729976 -1.697049
2008-06-13 09:10:46 51°24.831 2°28.667 21.1175 0.286763 1.830663 -1.731873
2008-06-13 09:11:46 51°24.846 2°28.673 21.1178 0.263909 1.676774 -1.697049
2008-06-13 09:12:46 51°24.865 2°28.683 21.1194 0.289131 1.846696 -1.697049
2008-06-13 09:13:46 51°24.888 2°28.688 21.1318 0.255365 1.619511 -1.697049
2008-06-13 09:14:46 51°24.948 2°28.65 21.1189 0.297058 1.900314 -1.697049
2008-06-13 09:15:46 51°25.024 2°28.58 21.1275 0.271218 1.725996 -1.697049
2008-06-13 09:16:46 51°25.099 2°28.504 21.1374 0.349152 2.254988 -1.697049
2008-06-13 09:17:46 51°25.176 2°28.437 21.126 0.299426 1.916468 -1.697049
2008-06-13 09:18:46 51°25.261 2°28.428 21.1286 0.304882 1.953657 -1.697049
2008-06-13 09:19:46 51°25.275 2°28.573 21.1226 0.271836 1.730503 -1.697049
2008-06-13 09:20:47 51°25.167 2°28.597 21.2376 0.295719 1.891716 -1.731873
2008-06-13 09:21:46 51°25.037 2°28.72 21.1916 0.313118 2.00967 -1.731873
2008-06-13 09:22:46 51°24.891 2°28.807 21.187 0.319192 2.050991 -1.697049
2008-06-13 09:23:46 51°24.813 2°28.805 21.1571 0.270704 1.722779 -1.697049
2008-06-13 09:24:46 51°24.763 2°28.764 21.1697 0.289131 1.847146 -1.731873
2008-06-13 09:25:46 51°24.748 2°28.713 21.1664 0.278219 1.773634 -1.697049
2008-06-13 09:26:46 51°24.757 2°28.694 21.1664 0.292219 1.868295 -1.697049
2008-06-13 09:27:46 51°24.766 2°28.706 21.18 0.29819 1.90872 -1.731873
2008-06-13 09:28:46 51°24.771 2°28.716 21.1614 0.285528 1.823063 -1.697049
2008-06-13 09:29:46 51°24.779 2°28.738 21.1572 0.268027 1.705231 -1.697049
2008-06-13 09:30:46 51°24.783 2°28.762 21.149 0.266174 1.692774 -1.697049
2008-06-13 09:31:46 51°24.789 2°28.779 21.1543 0.275748 1.757377 -1.697049
2008-06-13 09:32:46 51°24.775 2°28.746 21.1493 0.301073 1.928688 -1.697049
2008-06-13 09:33:46 51°24.765 2°28.713 21.1628 0.302617 1.939123 -1.697049
2008-06-13 09:34:46 51°24.772 2°28.706 21.1504 0.288719 1.845039 -1.697049
2008-06-13 09:35:46 51°24.779 2°28.715 21.1491 0.295411 1.890356 -1.697049
2008-06-13 09:36:46 51°24.786 2°28.733 21.1408 0.257527 1.634925 -1.697049
2008-06-13 09:37:46 51°24.791 2°28.764 21.1412 0.257527 1.634925 -1.697049
2008-06-13 09:38:46 51°24.794 2°28.781 21.1371 0.288101 1.840825 -1.697049
2008-06-13 09:39:46 51°24.777 2°28.747 21.1528 0.287895 1.839621 -1.731873
2008-06-13 09:40:46 51°24.763 2°28.709 21.1496 0.27791 1.772201 -1.697049
2008-06-13 09:41:46 51°24.764 2°28.69 21.1505 0.276674 1.763729 -1.697049
2008-06-13 09:42:46 51°24.772 2°28.697 21.1405 0.276263 1.760953 -1.697049
2008-06-13 09:43:46 51°24.777 2°28.712 21.1465 0.279763 1.784554 -1.697049
2008-06-13 09:44:46 51°24.782 2°28.737 21.1407 0.274513 1.749126 -1.697049
2008-06-13 09:45:46 51°24.786 2°28.764 21.1368 0.266998 1.698551 -1.697049
2008-06-13 09:46:46 51°24.789 2°28.793 21.1386 0.252071 1.598397 -1.697049
2008-06-13 09:47:46 51°24.786 2°28.785 21.1494 0.264733 1.683364 -1.697049
2008-06-13 09:48:46 51°24.756 2°28.735 21.1491 0.276777 1.764459 -1.697049
2008-06-13 09:49:46 51°24.749 2°28.694 21.1408 0.256703 1.629469 -1.697049
2008-06-13 09:50:46 51°24.756 2°28.689 21.1503 0.259689 1.649393 -1.697049
2008-06-13 09:51:47 51°24.764 2°28.698 21.1426 0.274204 1.746903 -1.697049
2008-06-13 09:52:46 51°24.771 2°28.714 21.1414 0.244968 1.550725 -1.697049
2008-06-13 09:53:46 51°24.776 2°28.737 21.1329 0.241777 1.529349 -1.697049
2008-06-13 09:54:46 51°24.779 2°28.761 21.1305 0.233954 1.477181 -1.697049
2008-06-13 09:55:46 51°24.782 2°28.789 21.1381 0.245174 1.551943 -1.731873
2008-06-13 09:56:46 51°24.779 2°28.765 21.1885 0.222837 1.40334 -1.697049
2008-06-13 09:57:46 51°24.686 2°28.801 21.1828 0.250733 1.589147 -1.731873
2008-06-13 09:58:46 51°24.557 2°28.963 21.1907 0.265865 1.690561 -1.697049
2008-06-13 09:59:45 51°24.428 2°29.138 21.166 0.243012 1.537409 -1.697049
2008-06-13 10:00:46 51°24.262 2°29.312 21.1668 0.255777 1.622664 -1.697049
2008-06-13 10:01:46 51°24.095 2°29.488 21.1541 0.241057 1.524198 -1.697049
2008-06-13 10:02:45 51°23.935 2°29.661 21.1545 0.245586 1.55441 -1.697049
2008-06-13 10:03:46 51°23.766 2°29.846 21.1656 0.264012 1.677806 -1.697049
2008-06-13 10:04:46 51°23.592 2°29.99 21.1631 0.249292 1.579023 -1.697049
2008-06-13 10:05:46 51°23.402 2°30.014 21.1705 0.257218 1.63219 -1.697049
2008-06-13 10:06:46 51°23.21 2°30.043 21.1657 0.258556 1.641129 -1.731873
2008-06-13 10:07:46 51°23.017 2°30.072 21.1825 0.272351 1.733826 -1.697049
2008-06-13 10:08:46 51°22.825 2°30.095 21.1675 0.239204 1.511684 -1.697049
2008-06-13 10:09:46 51°22.632 2°30.122 21.178 0.241777 1.528914 -1.697049
2008-06-13 10:10:46 51°22.44 2°30.153 21.1808 0.256189 1.625259 -1.697049
2008-06-13 10:11:45 51°22.251 2°30.18 21.1966 0.252071 1.597586 -1.731873
2008-06-13 10:12:46 51°22.057 2°30.204 21.1714 0.217999 1.370743 -1.697049
2008-06-13 10:13:46 51°21.865 2°30.234 21.1966 0.26288 1.669966 -1.697049
2008-06-13 10:14:46 51°21.672 2°30.257 21.2088 0.276777 1.763419 -1.697049
2008-06-13 10:15:45 51°21.483 2°30.277 21.2078 0.226233 1.425093 -1.697049
2008-06-13 10:16:46 51°21.293 2°30.309 21.1964 0.226542 1.427232 -1.697049
2008-06-13 10:17:46 51°21.128 2°30.482 21.1888 0.241983 1.530164 -1.697049
2008-06-13 10:18:46 51°20.981 2°30.698 21.2314 0.262468 1.666965 -1.697049
2008-06-13 10:19:45 51°20.833 2°30.916 21.2026 0.229836 1.449154 -1.697049
2008-06-13 10:20:46 51°20.683 2°31.147 21.2225 0.265968 1.690566 -1.697049
2008-06-13 10:21:46 51°20.533 2°31.374 21.2256 0.258556 1.640562 -1.697049
2008-06-13 10:22:46 51°20.382 2°31.599 21.2188 0.23766 1.501024 -1.697049
2008-06-13 10:23:46 51°20.231 2°31.825 21.2176 0.233336 1.47229 -1.697049
2008-06-13 10:24:46 51°20.085 2°32.057 21.2367 0.247027 1.563406 -1.731873
2008-06-13 10:25:46 51°19.956 2°32.309 21.2451 0.247645 1.567565 -1.697049
2008-06-13 10:26:46 51°19.828 2°32.565 21.2566 0.280792 1.790043 -1.697049
2008-06-13 10:27:46 51°19.702 2°32.825 21.2427 0.254748 1.614816 -1.697049
2008-06-13 10:28:46 51°19.576 2°33.081 21.2585 0.253409 1.605924 -1.697049
2008-06-13 10:29:46 51°19.449 2°33.339 21.2514 0.26288 1.669321 -1.697049
2008-06-13 10:30:45 51°19.324 2°33.592 21.2399 0.24013 1.517185 -1.697049
2008-06-13 10:31:46 51°19.193 2°33.854 21.2813 0.25485 1.615571 -1.697049
2008-06-13 10:32:46 51°19.066 2°34.112 21.2592 0.269983 1.717025 -1.697049
2008-06-13 10:33:45 51°18.939 2°34.363 21.2426 0.245483 1.552934 -1.697049
2008-06-13 10:34:46 51°18.804 2°34.627 21.249 0.219131 1.377633 -1.697049
2008-06-13 10:35:45 51°18.672 2°34.883 21.2539 0.242189 1.530916 -1.697049
2008-06-13 10:36:46 51°18.539 2°35.145 21.2683 0.269777 1.715327 -1.697049
2008-06-13 10:37:46 51°18.406 2°35.407 21.2978 0.265042 1.683523 -1.697049
2008-06-13 10:38:46 51°18.273 2°35.667 21.3004 0.264218 1.677791 -1.731873
2008-06-13 10:39:46 51°18.138 2°35.918 21.3029 0.241674 1.526863 -1.697049
2008-06-13 10:40:46 51°17.985 2°36.131 21.2844 0.240027 1.516068 -1.697049
2008-06-13 10:41:46 51°17.81 2°36.279 21.2968 0.2531 1.603337 -1.697049
2008-06-13 10:42:46 51°17.613 2°36.312 21.301 0.249086 1.576494 -1.697049
2008-06-13 10:43:46 51°17.456 2°36.338 21.306 0.271939 1.729825 -1.697049
2008-06-13 10:44:45 51°17.405 2°36.393 21.2968 0.219954 1.382754 -1.731873
2008-06-13 10:45:46 51°17.388 2°36.423 21.2935 0.25063 1.587104 -1.731873
2008-06-13 10:46:45 51°17.384 2°36.438 21.2871 0.239615 1.513508 -1.697049
2008-06-13 10:47:46 51°17.374 2°36.429 21.299 0.250424 1.585792 -1.697049
2008-06-13 10:48:46 51°17.385 2°36.383 21.2836 0.253718 1.607893 -1.697049
2008-06-13 10:49:46 51°17.405 2°36.366 21.2809 0.249395 1.578718 -1.697049
2008-06-13 10:50:46 51°17.42 2°36.374 21.2732 0.222322 1.398447 -1.731873
2008-06-13 10:51:46 51°17.428 2°36.389 21.2776 0.24785 1.568304 -1.697049
2008-06-13 10:52:45 51°17.436 2°36.407 21.2849 0.239615 1.513293 -1.697049
2008-06-13 10:53:46 51°17.449 2°36.422 21.2758 0.239718 1.514041 -1.697049
2008-06-13 10:54:46 51°17.475 2°36.406 21.2806 0.247439 1.565554 -1.697049
2008-06-13 10:55:46 51°17.474 2°36.361 21.2937 0.250939 1.589008 -1.697049
2008-06-13 10:56:46 51°17.436 2°36.34 21.2969 0.251248 1.590944 -1.697049
2008-06-13 10:57:46 51°17.402 2°36.336 21.2876 0.25413 1.610257 -1.697049
2008-06-13 10:58:46 51°17.394 2°36.35 21.3051 0.213058 1.336997 -1.697049
2008-06-13 10:59:46 51°17.397 2°36.367 21.3058 0.249395 1.578622 -1.697049
2008-06-13 11:00:46 51°17.405 2°36.383 21.2952 0.217999 1.36966 -1.697049
2008-06-13 11:01:46 51°17.415 2°36.398 21.2932 0.255056 1.616359 -1.697049
2008-06-13 11:02:46 51°17.424 2°36.414 21.2944 0.255571 1.619738 -1.697049
2008-06-13 11:03:46 51°17.432 2°36.431 21.2959 0.241262 1.524087 -1.697049
2008-06-13 11:04:46 51°17.434 2°36.457 21.2933 0.236527 1.492449 -1.697049
2008-06-13 11:05:46 51°17.419 2°36.473 21.3113 0.250012 1.582397 -1.697049
2008-06-13 11:06:46 51°17.399 2°36.448 21.303 0.259689 1.64725 -1.697049
2008-06-13 11:07:46 51°17.382 2°36.394 21.2924 0.244968 1.548743 -1.697049
2008-06-13 11:08:46 51°17.39 2°36.358 21.2961 0.252895 1.601634 -1.697049
2008-06-13 11:09:46 51°17.399 2°36.365 21.2932 0.267512 1.69949 -1.697049
2008-06-13 11:10:46 51°17.406 2°36.379 21.2971 0.257321 1.631025 -1.731873
2008-06-13 11:11:46 51°17.413 2°36.397 21.2913 0.231277 1.457202 -1.731873
2008-06-13 11:12:46 51°17.419 2°36.414 21.2939 0.256806 1.627414 -1.697049
2008-06-13 11:13:46 51°17.425 2°36.434 21.2925 0.245792 1.553861 -1.697049
2008-06-13 11:14:46 51°17.43 2°36.452 21.3014 0.238277 1.503767 -1.697049
2008-06-13 11:15:45 51°17.462 2°36.448 21.2945 0.257527 1.632106 -1.697049
2008-06-13 11:16:46 51°17.519 2°36.554 21.3016 0.239204 1.509876 -1.731873
2008-06-13 11:17:45 51°17.466 2°36.775 21.281 0.22541 1.418014 -1.697049
2008-06-13 11:18:46 51°17.382 2°37.069 21.2949 0.253409 1.604003 -1.697049
2008-06-13 11:19:46 51°17.299 2°37.326 21.3042 0.254542 1.611443 -1.697049
2008-06-13 11:20:46 51°17.276 2°37.467 21.3117 0.247542 1.564528 -1.697049
2008-06-13 11:21:45 51°17.242 2°37.549 21.3115 0.252483 1.597714 -1.697049
2008-06-13 11:22:46 51°17.195 2°37.618 21.3314 0.252174 1.595456 -1.697049
2008-06-13 11:23:46 51°17.16 2°37.7 21.3126 0.231998 1.460925 -1.697049
2008-06-13 11:24:46 51°17.129 2°37.752 21.3285 0.230351 1.449959 -1.697049
2008-06-13 11:25:46 51°17.107 2°37.768 21.3221 0.250115 1.581481 -1.731873
2008-06-13 11:26:45 51°17.094 2°37.781 21.3128 0.221498 1.39107 -1.697049
2008-06-13 11:27:46 51°17.084 2°37.794 21.3159 0.233645 1.471599 -1.697049
2008-06-13 11:28:46 51°17.076 2°37.804 21.3161 0.244865 1.546175 -1.697049
2008-06-13 11:29:46 51°17.07 2°37.812 21.3218 0.244042 1.540655 -1.697049
2008-06-13 11:30:46 51°17.064 2°37.819 21.3104 0.236527 1.490546 -1.697049
2008-06-13 11:31:46 51°17.06 2°37.823 21.3205 0.254439 1.609841 -1.697049
2008-06-13 11:32:46 51°17.057 2°37.828 21.329 0.261645 1.657904 -1.697049
2008-06-13 11:33:46 51°17.055 2°37.831 21.3247 0.250527 1.583556 -1.697049
2008-06-13 11:34:46 51°17.054 2°37.835 21.3303 0.244659 1.544427 -1.697049
2008-06-13 11:35:46 51°17.055 2°37.84 21.3249 0.226645 1.424621 -1.731873
2008-06-13 11:36:46 51°17.054 2°37.843 21.3301 0.249292 1.575058 -1.697049
2008-06-13 11:37:46 51°17.055 2°37.846 21.3338 0.249395 1.575713 -1.731873
2008-06-13 11:38:46 51°17.056 2°37.85 21.3302 0.262468 1.663014 -1.697049
2008-06-13 11:39:46 51°17.057 2°37.854 21.3352 0.250218 1.581111 -1.697049
2008-06-13 11:40:46 51°17.058 2°37.858 21.3316 0.235395 1.482298 -1.697049
2008-06-13 11:41:46 51°17.058 2°37.861 21.3382 0.245071 1.546639 -1.697049
2008-06-13 11:42:45 51°17.059 2°37.865 21.3373 0.25938 1.641983 -1.697049
2008-06-13 11:43:46 51°17.06 2°37.869 21.3452 0.249497 1.575889 -1.697049
2008-06-13 11:44:46 51°17.061 2°37.875 21.3446 0.253306 1.601108 -1.697049
2008-06-13 11:45:46 51°17.063 2°37.881 21.3494 0.245586 1.549597 -1.697049
2008-06-13 11:46:46 51°17.065 2°37.889 21.351 0.245895 1.551466 -1.697049
2008-06-13 11:47:46 51°17.067 2°37.897 21.3479 0.263292 1.667616 -1.731873
2008-06-13 11:48:46 51°17.068 2°37.905 21.3509 0.244453 1.541776 -1.697049
2008-06-13 11:49:45 51°17.069 2°37.911 21.3549 0.261644 1.656361 -1.697049
2008-06-13 11:50:46 51°17.07 2°37.917 21.3511 0.257218 1.626773 -1.697049
2008-06-13 11:51:46 51°17.07 2°37.923 21.3435 0.244865 1.544205 -1.731873
2008-06-13 11:52:46 51°17.069 2°37.928 21.3557 0.243836 1.537198 -1.731873
2008-06-13 11:53:46 51°17.067 2°37.934 21.3552 0.252174 1.592681 -1.697049
2008-06-13 11:54:46 51°17.067 2°37.938 21.3557 0.24188 1.524003 -1.697049
2008-06-13 11:55:46 51°17.065 2°37.941 21.3559 0.242086 1.52531 -1.697049
2008-06-13 11:56:46 51°17.064 2°37.943 21.3572 0.248983 1.571122 -1.697049
2008-06-13 11:57:46 51°17.062 2°37.945 21.36 0.238792 1.503173 -1.731873
2008-06-13 11:58:46 51°17.061 2°37.945 21.3677 0.268233 1.699433 -1.697049
2008-06-13 11:59:46 51°17.06 2°37.947 21.36 0.250012 1.577598 -1.697049
2008-06-13 12:00:46 51°17.059 2°37.949 21.3634 0.256086 1.618097 -1.697049
2008-06-13 12:01:46 51°17.058 2°37.949 21.3686 0.247953 1.563759 -1.697049
2008-06-13 12:02:46 51°17.056 2°37.95 21.3723 0.263394 1.666652 -1.697049
2008-06-13 12:03:46 51°17.055 2°37.951 21.3686 0.26113 1.651449 -1.697049
2008-06-13 12:04:46 51°17.053 2°37.952 21.3687 0.240953 1.516954 -1.697049
2008-06-13 12:05:46 51°17.051 2°37.95 21.3715 0.256189 1.61826 -1.697049
2008-06-13 12:06:46 51°17.049 2°37.947 21.378 0.257218 1.625096 -1.697049
2008-06-13 12:07:46 51°17.047 2°37.944 21.3696 0.251453 1.586464 -1.697049
2008-06-13 12:08:46 51°17.046 2°37.943 21.3705 0.24888 1.569358 -1.697049
2008-06-13 12:09:46 51°17.045 2°37.94 21.3757 0.252894 1.595874 -1.697049
2008-06-13 12:10:46 51°17.044 2°37.938 21.3768 0.257321 1.625356 -1.697049
2008-06-13 12:11:46 51°17.043 2°37.936 21.3784 0.24713 1.557238 -1.731873
2008-06-13 12:12:46 51°17.042 2°37.935 21.3787 0.242395 1.52573 -1.697049
2008-06-13 12:13:46 51°17.04 2°37.934 21.3837 0.241365 1.5188 -1.697049
2008-06-13 12:14:46 51°17.039 2°37.932 21.3831 0.243218 1.530954 -1.697049
2008-06-13 12:15:46 51°17.037 2°37.931 21.3924 0.244659 1.540375 -1.731873
2008-06-13 12:16:46 51°17.026 2°37.887 21.3945 0.25063 1.580053 -1.697049
2008-06-13 12:17:46 51°17.037 2°37.831 21.3921 0.235498 1.479362 -1.697049
2008-06-13 12:18:46 51°17.063 2°37.795 21.3974 0.251865 1.587957 -1.697049
2008-06-13 12:19:46 51°17.093 2°37.763 21.3914 0.231586 1.453219 -1.697049
2008-06-13 12:20:46 51°17.124 2°37.734 21.3927 0.242909 1.528255 -1.697049
2008-06-13 12:21:46 51°17.156 2°37.719 21.3932 0.259586 1.639113 -1.697049
2008-06-13 12:22:46 51°17.185 2°37.721 21.3926 0.259791 1.640387 -1.697049
2008-06-13 12:23:46 51°17.203 2°37.743 21.3887 0.244865 1.540872 -1.697049
2008-06-13 12:24:46 51°17.211 2°37.786 21.3901 0.257424 1.624272 -1.697049
2008-06-13 12:25:46 51°17.209 2°37.845 21.3965 0.246615 1.552311 -1.697049
2008-06-13 12:26:46 51°17.206 2°37.885 21.392 0.2566 1.618588 -1.697049
2008-06-13 12:27:46 51°17.204 2°37.912 21.3912 0.23241 1.457906 -1.697049
2008-06-13 12:28:46 51°17.2 2°37.933 21.391 0.23663 1.485729 -1.697049
2008-06-13 12:29:46 51°17.194 2°37.948 21.394 0.25485 1.606705 -1.697049
2008-06-13 12:30:46 51°17.187 2°37.958 21.3936 0.245586 1.544911 -1.697049
2008-06-13 12:31:46 51°17.179 2°37.963 21.3932 0.228395 1.430898 -1.697049
2008-06-13 12:32:46 51°17.171 2°37.964 21.3987 0.267718 1.692087 -1.697049
2008-06-13 12:33:46 51°17.163 2°37.965 21.3989 0.254336 1.602729 -1.697049
2008-06-13 12:34:46 51°17.127 2°38.007 21.3971 0.22963 1.438916 -1.731873
2008-06-13 12:35:46 51°17.037 2°38.196 21.4057 0.234777 1.472746 -1.697049
2008-06-13 12:36:46 51°16.914 2°38.44 21.4073 0.237248 1.48883 -1.697049
2008-06-13 12:37:46 51°16.797 2°38.68 21.4271 0.244556 1.537178 -1.731873
2008-06-13 12:38:46 51°16.685 2°38.923 21.4538 0.271836 1.718463 -1.697049
2008-06-13 12:39:46 51°16.56 2°39.162 21.4688 0.277601 1.757049 -1.697049
2008-06-13 12:40:46 51°16.436 2°39.404 21.461 0.262262 1.654303 -1.697049
2008-06-13 12:41:46 51°16.314 2°39.654 21.4691 0.277704 1.757313 -1.697049
2008-06-13 12:42:46 51°16.195 2°39.902 21.47 0.247438 1.555025 -1.697049
2008-06-13 12:43:46 51°16.078 2°40.154 21.4774 0.260512 1.641948 -1.697049
2008-06-13 12:44:46 51°15.956 2°40.406 21.4667 0.241674 1.516598 -1.697049
2008-06-13 12:45:46 51°15.833 2°40.656 21.4712 0.235498 1.475583 -1.697049
2008-06-13 12:46:46 51°15.714 2°40.902 21.4857 0.25763 1.62185 -1.697049
2008-06-13 12:47:46 51°15.595 2°41.143 21.4957 0.226542 1.415953 -1.697049
2008-06-13 12:48:46 51°15.476 2°41.385 21.5085 0.246821 1.54968 -1.697049
2008-06-13 12:49:46 51°15.362 2°41.634 21.4931 0.23663 1.482265 -1.697049
2008-06-13 12:50:46 51°15.29 2°41.914 21.5559 0.259585 1.633939 -1.697049
2008-06-13 12:51:46 51°15.261 2°42.213 21.5321 0.25063 1.57421 -1.731873
2008-06-13 12:52:46 51°15.247 2°42.518 21.5187 0.244144 1.531456 -1.697049
2008-06-13 12:53:46 51°15.229 2°42.826 21.5402 0.252585 1.587216 -1.697049
2008-06-13 12:54:46 51°15.214 2°43.136 21.5324 0.2531 1.590568 -1.697049
2008-06-13 12:55:46 51°15.201 2°43.446 21.5279 0.245483 1.539946 -1.697049
2008-06-13 12:56:46 51°15.183 2°43.753 21.5296 0.240747 1.50831 -1.697049
2008-06-13 12:57:46 51°15.169 2°44.06 21.5288 0.247747 1.554697 -1.697049
2008-06-13 12:58:46 51°15.15 2°44.364 21.5419 0.238071 1.490443 -1.697049
2008-06-13 12:59:46 51°15.131 2°44.667 21.5367 0.248056 1.55643 -1.697049
2008-06-13 13:00:46 51°15.112 2°44.97 21.5488 0.252997 1.589118 -1.697049
2008-06-13 13:01:46 51°15.092 2°45.272 21.5423 0.230762 1.442016 -1.697049
2008-06-13 13:02:46 51°15.072 2°45.572 21.5519 0.253203 1.590037 -1.697049
2008-06-13 13:03:46 51°15.05 2°45.873 21.5415 0.236733 1.481011 -1.697049
2008-06-13 13:04:46 51°15.027 2°46.173 21.5452 0.256497 1.611729 -1.697049
2008-06-13 13:05:46 51°15.006 2°46.471 21.5523 0.248365 1.557381 -1.697049
2008-06-13 13:06:46 51°14.985 2°46.769 21.577 0.244659 1.532893 -1.697049
2008-06-13 13:07:46 51°14.964 2°47.065 21.5589 0.252894 1.587161 -1.697049
2008-06-13 13:08:46 51°14.944 2°47.363 21.5645 0.25238 1.583718 -1.731873
2008-06-13 13:09:46 51°14.924 2°47.662 21.5787 0.243836 1.526958 -1.697049
2008-06-13 13:10:46 51°14.904 2°47.962 21.6004 0.240953 1.507734 -1.697049
2008-06-13 13:11:46 51°14.883 2°48.261 21.5846 0.236733 1.479913 -1.697049
2008-06-13 13:12:46 51°14.861 2°48.56 21.5822 0.249291 1.562481 -1.697049
2008-06-13 13:13:46 51°14.841 2°48.86 21.6051 0.258968 1.626661 -1.697049
2008-06-13 13:14:46 51°14.827 2°49.162 21.6005 0.250424 1.569943 -1.697049
2008-06-13 13:15:46 51°14.811 2°49.464 21.6041 0.234571 1.464985 -1.697049
2008-06-13 13:16:46 51°14.795 2°49.767 21.6131 0.253924 1.59277 -1.697049
2008-06-13 13:17:46 51°14.783 2°50.069 21.6125 0.248468 1.556533 -1.697049
2008-06-13 13:18:46 51°14.771 2°50.37 21.623 0.251247 1.57489 -1.697049
2008-06-13 13:19:46 51°14.753 2°50.67 21.6058 0.246203 1.541375 -1.697049
2008-06-13 13:20:46 51°14.732 2°50.97 21.6208 0.23313 1.455202 -1.697049
2008-06-13 13:21:46 51°14.717 2°51.268 21.6401 0.252277 1.581292 -1.697049
2008-06-13 13:22:46 51°14.701 2°51.567 21.648 0.255571 1.602911 -1.697049
2008-06-13 13:23:46 51°14.685 2°51.864 21.6475 0.244659 1.530652 -1.697049
2008-06-13 13:24:46 51°14.668 2°52.162 21.6596 0.249703 1.563858 -1.697049
2008-06-13 13:25:46 51°14.652 2°52.461 21.6658 0.242806 1.518208 -1.697049
2008-06-13 13:26:46 51°14.643 2°52.761 21.6489 0.235395 1.469146 -1.697049
2008-06-13 13:27:46 51°14.628 2°53.058 21.6965 0.249394 1.561285 -1.697049
2008-06-13 13:28:46 51°14.598 2°53.352 21.6807 0.252585 1.582037 -1.697049
2008-06-13 13:29:46 51°14.554 2°53.643 21.6779 0.239821 1.497947 -1.697049
2008-06-13 13:30:46 51°14.508 2°53.937 21.7006 0.232615 1.450507 -1.697049
2008-06-13 13:31:46 51°14.492 2°54.236 21.7147 0.249806 1.563255 -1.697049
2008-06-13 13:32:46 51°14.466 2°54.539 21.7064 0.252585 1.581784 -1.697049
2008-06-13 13:33:46 51°14.41 2°54.833 21.7223 0.245585 1.535541 -1.697049
2008-06-13 13:34:47 51°14.328 2°55.118 21.7285 0.245894 1.537364 -1.697049
2008-06-13 13:35:50 51°14.192 2°55.345 21.7308 0.257732 1.615584 -1.697049